sensor_id;sensor_type;location;lat;lon;timestamp;P1;durP1;ratioP1;P2;durP2;ratioP2
70008;SDS011;59542;37.950;-122.338;2023-05-16T00:00:57;1.15;;;0.50;;
70008;SDS011;59542;37.950;-122.338;2023-05-16T00:03:25;0.65;;;0.30;;
70008;SDS011;59542;37.950;-122.338;2023-05-16T00:05:52;2.60;;;0.45;;
70008;SDS011;59542;37.950;-122.338;2023-05-16T00:08:18;3.13;;;0.40;;
70008;SDS011;59542;37.950;-122.338;2023-05-16T00:10:44;0.90;;;0.40;;
70008;SDS011;59542;37.950;-122.338;2023-05-16T00:13:11;1.42;;;0.30;;
70008;SDS011;59542;37.950;-122.338;2023-05-16T00:15:37;1.55;;;0.50;;
70008;SDS011;59542;37.950;-122.338;2023-05-16T00:18:04;1.20;;;0.55;;
70008;SDS011;59542;37.950;-122.338;2023-05-16T00:20:30;1.08;;;0.40;;
70008;SDS011;59542;37.950;-122.338;2023-05-16T00:22:57;0.93;;;0.50;;
70008;SDS011;59542;37.950;-122.338;2023-05-16T00:25:25;1.63;;;0.52;;
70008;SDS011;59542;37.950;-122.338;2023-05-16T00:27:52;2.50;;;0.70;;
70008;SDS011;59542;37.950;-122.338;2023-05-16T00:30:19;0.52;;;0.40;;
70008;SDS011;59542;37.950;-122.338;2023-05-16T00:32:46;2.78;;;0.55;;
70008;SDS011;59542;37.950;-122.338;2023-05-16T00:35:12;1.80;;;0.38;;
70008;SDS011;59542;37.950;-122.338;2023-05-16T00:37:38;2.08;;;0.60;;
70008;SDS011;59542;37.950;-122.338;2023-05-16T00:40:05;1.67;;;0.52;;
70008;SDS011;59542;37.950;-122.338;2023-05-16T00:42:32;1.00;;;0.50;;
70008;SDS011;59542;37.950;-122.338;2023-05-16T00:44:59;2.30;;;0.70;;
70008;SDS011;59542;37.950;-122.338;2023-05-16T00:47:25;1.45;;;0.50;;
70008;SDS011;59542;37.950;-122.338;2023-05-16T00:49:51;2.55;;;0.68;;
70008;SDS011;59542;37.950;-122.338;2023-05-16T00:52:18;1.27;;;0.70;;
70008;SDS011;59542;37.950;-122.338;2023-05-16T00:54:44;1.20;;;0.70;;
70008;SDS011;59542;37.950;-122.338;2023-05-16T00:57:11;3.15;;;0.50;;
70008;SDS011;59542;37.950;-122.338;2023-05-16T00:59:37;1.80;;;0.70;;
70008;SDS011;59542;37.950;-122.338;2023-05-16T01:02:04;1.40;;;0.50;;
70008;SDS011;59542;37.950;-122.338;2023-05-16T01:04:30;1.75;;;0.68;;
70008;SDS011;59542;37.950;-122.338;2023-05-16T01:06:57;2.28;;;0.70;;
70008;SDS011;59542;37.950;-122.338;2023-05-16T01:09:25;2.60;;;0.80;;
70008;SDS011;59542;37.950;-122.338;2023-05-16T01:14:55;3.13;;;0.70;;
70008;SDS011;59542;37.950;-122.338;2023-05-16T01:20:13;1.80;;;0.60;;
70008;SDS011;59542;37.950;-122.338;2023-05-16T01:23:03;1.42;;;0.70;;
70008;SDS011;59542;37.950;-122.338;2023-05-16T01:28:00;0.95;;;0.50;;
70008;SDS011;59542;37.950;-122.338;2023-05-16T01:30:31;2.28;;;0.60;;
70008;SDS011;59542;37.950;-122.338;2023-05-16T01:33:00;1.80;;;0.70;;
70008;SDS011;59542;37.950;-122.338;2023-05-16T01:35:26;3.05;;;0.50;;
70008;SDS011;59542;37.950;-122.338;2023-05-16T01:37:58;1.83;;;0.55;;
70008;SDS011;59542;37.950;-122.338;2023-05-16T01:40:58;1.00;;;0.50;;
70008;SDS011;59542;37.950;-122.338;2023-05-16T01:43:47;3.45;;;0.70;;
70008;SDS011;59542;37.950;-122.338;2023-05-16T01:46:21;4.65;;;0.75;;
70008;SDS011;59542;37.950;-122.338;2023-05-16T01:51:41;1.63;;;0.60;;
70008;SDS011;59542;37.950;-122.338;2023-05-16T01:54:15;1.30;;;0.52;;
70008;SDS011;59542;37.950;-122.338;2023-05-16T01:56:46;0.70;;;0.40;;
70008;SDS011;59542;37.950;-122.338;2023-05-16T01:59:22;1.13;;;0.60;;
70008;SDS011;59542;37.950;-122.338;2023-05-16T02:01:52;0.90;;;0.60;;
70008;SDS011;59542;37.950;-122.338;2023-05-16T02:04:19;2.05;;;0.60;;
70008;SDS011;59542;37.950;-122.338;2023-05-16T02:06:46;2.03;;;0.60;;
70008;SDS011;59542;37.950;-122.338;2023-05-16T02:09:12;0.88;;;0.63;;
70008;SDS011;59542;37.950;-122.338;2023-05-16T02:11:39;3.03;;;0.60;;
70008;SDS011;59542;37.950;-122.338;2023-05-16T02:14:05;2.28;;;0.60;;
70008;SDS011;59542;37.950;-122.338;2023-05-16T02:16:32;1.73;;;0.50;;
70008;SDS011;59542;37.950;-122.338;2023-05-16T02:18:58;0.98;;;0.40;;
70008;SDS011;59542;37.950;-122.338;2023-05-16T02:21:25;2.17;;;0.50;;
70008;SDS011;59542;37.950;-122.338;2023-05-16T02:23:51;1.10;;;0.40;;
70008;SDS011;59542;37.950;-122.338;2023-05-16T02:26:17;2.65;;;0.75;;
70008;SDS011;59542;37.950;-122.338;2023-05-16T02:28:43;3.45;;;0.93;;
70008;SDS011;59542;37.950;-122.338;2023-05-16T02:31:10;1.77;;;0.70;;
70008;SDS011;59542;37.950;-122.338;2023-05-16T02:33:36;1.85;;;0.68;;
70008;SDS011;59542;37.950;-122.338;2023-05-16T02:36:02;1.40;;;0.50;;
70008;SDS011;59542;37.950;-122.338;2023-05-16T02:38:29;1.65;;;0.82;;
70008;SDS011;59542;37.950;-122.338;2023-05-16T02:40:55;2.97;;;1.05;;
70008;SDS011;59542;37.950;-122.338;2023-05-16T02:43:21;2.05;;;0.75;;
70008;SDS011;59542;37.950;-122.338;2023-05-16T02:45:47;2.38;;;0.60;;
70008;SDS011;59542;37.950;-122.338;2023-05-16T02:48:14;2.20;;;0.50;;
70008;SDS011;59542;37.950;-122.338;2023-05-16T02:50:40;2.13;;;0.80;;
70008;SDS011;59542;37.950;-122.338;2023-05-16T02:53:06;2.45;;;0.95;;
70008;SDS011;59542;37.950;-122.338;2023-05-16T02:55:33;3.28;;;0.90;;
70008;SDS011;59542;37.950;-122.338;2023-05-16T02:57:59;5.68;;;1.33;;
70008;SDS011;59542;37.950;-122.338;2023-05-16T03:00:25;6.78;;;0.95;;
70008;SDS011;59542;37.950;-122.338;2023-05-16T03:02:51;1.35;;;1.05;;
70008;SDS011;59542;37.950;-122.338;2023-05-16T03:05:18;1.70;;;0.70;;
70008;SDS011;59542;37.950;-122.338;2023-05-16T03:07:44;2.55;;;0.60;;
70008;SDS011;59542;37.950;-122.338;2023-05-16T03:10:10;1.35;;;0.80;;
70008;SDS011;59542;37.950;-122.338;2023-05-16T03:12:37;1.77;;;0.57;;
70008;SDS011;59542;37.950;-122.338;2023-05-16T03:15:03;1.98;;;0.85;;
70008;SDS011;59542;37.950;-122.338;2023-05-16T03:17:30;2.65;;;0.88;;
70008;SDS011;59542;37.950;-122.338;2023-05-16T03:19:56;2.92;;;0.80;;
70008;SDS011;59542;37.950;-122.338;2023-05-16T03:22:22;2.65;;;0.80;;
70008;SDS011;59542;37.950;-122.338;2023-05-16T03:24:48;3.13;;;0.60;;
70008;SDS011;59542;37.950;-122.338;2023-05-16T03:27:15;1.50;;;0.75;;
70008;SDS011;59542;37.950;-122.338;2023-05-16T03:29:41;2.15;;;1.08;;
70008;SDS011;59542;37.950;-122.338;2023-05-16T03:32:07;4.03;;;0.90;;
70008;SDS011;59542;37.950;-122.338;2023-05-16T03:34:36;2.10;;;1.00;;
70008;SDS011;59542;37.950;-122.338;2023-05-16T03:37:02;4.55;;;1.00;;
70008;SDS011;59542;37.950;-122.338;2023-05-16T03:39:28;2.33;;;0.90;;
70008;SDS011;59542;37.950;-122.338;2023-05-16T03:41:55;2.55;;;1.20;;
70008;SDS011;59542;37.950;-122.338;2023-05-16T03:44:21;1.35;;;1.00;;
70008;SDS011;59542;37.950;-122.338;2023-05-16T03:46:48;1.77;;;0.90;;
70008;SDS011;59542;37.950;-122.338;2023-05-16T03:49:15;4.65;;;1.02;;
70008;SDS011;59542;37.950;-122.338;2023-05-16T03:51:41;2.40;;;0.90;;
70008;SDS011;59542;37.950;-122.338;2023-05-16T03:54:08;1.48;;;1.10;;
70008;SDS011;59542;37.950;-122.338;2023-05-16T03:56:34;2.03;;;1.08;;
70008;SDS011;59542;37.950;-122.338;2023-05-16T03:59:00;2.10;;;1.17;;
70008;SDS011;59542;37.950;-122.338;2023-05-16T04:01:26;3.22;;;0.90;;
70008;SDS011;59542;37.950;-122.338;2023-05-16T04:03:53;2.10;;;1.20;;
70008;SDS011;59542;37.950;-122.338;2023-05-16T04:06:20;1.85;;;0.77;;
70008;SDS011;59542;37.950;-122.338;2023-05-16T04:08:46;4.53;;;1.10;;
70008;SDS011;59542;37.950;-122.338;2023-05-16T04:11:12;5.03;;;1.30;;
70008;SDS011;59542;37.950;-122.338;2023-05-16T04:13:38;2.38;;;1.13;;
70008;SDS011;59542;37.950;-122.338;2023-05-16T04:16:05;2.47;;;0.90;;
70008;SDS011;59542;37.950;-122.338;2023-05-16T04:18:32;2.63;;;1.20;;
70008;SDS011;59542;37.950;-122.338;2023-05-16T04:20:59;1.83;;;1.00;;
70008;SDS011;59542;37.950;-122.338;2023-05-16T04:23:25;3.08;;;0.85;;
70008;SDS011;59542;37.950;-122.338;2023-05-16T04:25:51;5.57;;;1.30;;
70008;SDS011;59542;37.950;-122.338;2023-05-16T04:28:18;2.67;;;0.95;;
70008;SDS011;59542;37.950;-122.338;2023-05-16T04:30:45;3.42;;;1.08;;
70008;SDS011;59542;37.950;-122.338;2023-05-16T04:33:11;3.72;;;1.05;;
70008;SDS011;59542;37.950;-122.338;2023-05-16T04:35:38;2.80;;;1.10;;
70008;SDS011;59542;37.950;-122.338;2023-05-16T04:38:04;3.60;;;0.90;;
70008;SDS011;59542;37.950;-122.338;2023-05-16T04:40:30;3.75;;;1.50;;
70008;SDS011;59542;37.950;-122.338;2023-05-16T04:42:57;2.45;;;1.23;;
70008;SDS011;59542;37.950;-122.338;2023-05-16T04:45:23;3.05;;;1.30;;
70008;SDS011;59542;37.950;-122.338;2023-05-16T04:47:49;4.13;;;1.23;;
70008;SDS011;59542;37.950;-122.338;2023-05-16T04:50:16;3.92;;;1.30;;
70008;SDS011;59542;37.950;-122.338;2023-05-16T04:52:42;3.88;;;1.48;;
70008;SDS011;59542;37.950;-122.338;2023-05-16T04:55:09;4.78;;;1.50;;
70008;SDS011;59542;37.950;-122.338;2023-05-16T04:57:35;3.95;;;1.45;;
70008;SDS011;59542;37.950;-122.338;2023-05-16T05:00:02;2.28;;;1.30;;
70008;SDS011;59542;37.950;-122.338;2023-05-16T05:02:32;2.90;;;1.20;;
70008;SDS011;59542;37.950;-122.338;2023-05-16T05:04:58;2.75;;;1.40;;
70008;SDS011;59542;37.950;-122.338;2023-05-16T05:07:24;5.28;;;1.85;;
70008;SDS011;59542;37.950;-122.338;2023-05-16T05:09:52;2.17;;;1.00;;
70008;SDS011;59542;37.950;-122.338;2023-05-16T05:12:20;4.35;;;1.30;;
70008;SDS011;59542;37.950;-122.338;2023-05-16T05:14:47;3.40;;;1.33;;
70008;SDS011;59542;37.950;-122.338;2023-05-16T05:17:13;6.93;;;1.38;;
70008;SDS011;59542;37.950;-122.338;2023-05-16T05:19:40;2.83;;;1.30;;
70008;SDS011;59542;37.950;-122.338;2023-05-16T05:22:07;5.20;;;1.48;;
70008;SDS011;59542;37.950;-122.338;2023-05-16T05:24:33;5.28;;;1.30;;
70008;SDS011;59542;37.950;-122.338;2023-05-16T05:27:00;4.20;;;1.58;;
70008;SDS011;59542;37.950;-122.338;2023-05-16T05:29:26;3.58;;;1.77;;
70008;SDS011;59542;37.950;-122.338;2023-05-16T05:31:52;4.47;;;1.60;;
70008;SDS011;59542;37.950;-122.338;2023-05-16T05:34:18;2.97;;;1.40;;
70008;SDS011;59542;37.950;-122.338;2023-05-16T05:36:45;3.75;;;1.40;;
70008;SDS011;59542;37.950;-122.338;2023-05-16T05:39:11;4.03;;;1.50;;
70008;SDS011;59542;37.950;-122.338;2023-05-16T05:41:37;2.70;;;1.10;;
70008;SDS011;59542;37.950;-122.338;2023-05-16T05:44:04;3.92;;;1.45;;
70008;SDS011;59542;37.950;-122.338;2023-05-16T05:46:30;4.30;;;1.45;;
70008;SDS011;59542;37.950;-122.338;2023-05-16T05:48:58;2.55;;;1.25;;
70008;SDS011;59542;37.950;-122.338;2023-05-16T05:51:25;4.63;;;1.40;;
70008;SDS011;59542;37.950;-122.338;2023-05-16T05:53:51;3.83;;;1.50;;
70008;SDS011;59542;37.950;-122.338;2023-05-16T05:56:18;4.15;;;1.58;;
70008;SDS011;59542;37.950;-122.338;2023-05-16T05:58:45;1.75;;;1.30;;
70008;SDS011;59542;37.950;-122.338;2023-05-16T06:01:11;3.00;;;1.50;;
70008;SDS011;59542;37.950;-122.338;2023-05-16T06:03:38;3.25;;;1.50;;
70008;SDS011;59542;37.950;-122.338;2023-05-16T06:06:06;3.10;;;1.33;;
70008;SDS011;59542;37.950;-122.338;2023-05-16T06:08:33;3.40;;;1.23;;
70008;SDS011;59542;37.950;-122.338;2023-05-16T06:11:00;9.75;;;1.52;;
70008;SDS011;59542;37.950;-122.338;2023-05-16T06:13:26;2.97;;;1.40;;
70008;SDS011;59542;37.950;-122.338;2023-05-16T06:15:52;7.75;;;1.67;;
70008;SDS011;59542;37.950;-122.338;2023-05-16T06:18:19;5.15;;;1.38;;
70008;SDS011;59542;37.950;-122.338;2023-05-16T06:20:46;5.45;;;1.50;;
70008;SDS011;59542;37.950;-122.338;2023-05-16T06:23:12;4.82;;;1.42;;
70008;SDS011;59542;37.950;-122.338;2023-05-16T06:25:38;3.33;;;0.90;;
70008;SDS011;59542;37.950;-122.338;2023-05-16T06:28:05;3.53;;;1.50;;
70008;SDS011;59542;37.950;-122.338;2023-05-16T06:30:31;5.55;;;1.67;;
70008;SDS011;59542;37.950;-122.338;2023-05-16T06:32:57;2.63;;;1.30;;
70008;SDS011;59542;37.950;-122.338;2023-05-16T06:35:23;3.15;;;1.23;;
70008;SDS011;59542;37.950;-122.338;2023-05-16T06:37:50;2.00;;;1.13;;
70008;SDS011;59542;37.950;-122.338;2023-05-16T06:40:16;5.28;;;1.30;;
70008;SDS011;59542;37.950;-122.338;2023-05-16T06:42:42;2.28;;;1.40;;
70008;SDS011;59542;37.950;-122.338;2023-05-16T06:45:08;4.03;;;1.30;;
70008;SDS011;59542;37.950;-122.338;2023-05-16T06:47:35;2.67;;;1.33;;
70008;SDS011;59542;37.950;-122.338;2023-05-16T06:50:02;1.55;;;1.20;;
70008;SDS011;59542;37.950;-122.338;2023-05-16T06:52:29;2.53;;;1.10;;
70008;SDS011;59542;37.950;-122.338;2023-05-16T06:54:55;3.70;;;1.35;;
70008;SDS011;59542;37.950;-122.338;2023-05-16T06:57:21;4.07;;;1.60;;
70008;SDS011;59542;37.950;-122.338;2023-05-16T06:59:47;1.67;;;1.17;;
70008;SDS011;59542;37.950;-122.338;2023-05-16T07:02:14;3.28;;;1.30;;
70008;SDS011;59542;37.950;-122.338;2023-05-16T07:04:40;3.67;;;1.60;;
70008;SDS011;59542;37.950;-122.338;2023-05-16T07:07:06;2.90;;;1.63;;
70008;SDS011;59542;37.950;-122.338;2023-05-16T07:09:33;4.00;;;1.25;;
70008;SDS011;59542;37.950;-122.338;2023-05-16T07:11:59;2.58;;;1.38;;
70008;SDS011;59542;37.950;-122.338;2023-05-16T07:14:26;4.45;;;2.50;;
70008;SDS011;59542;37.950;-122.338;2023-05-16T07:16:52;5.72;;;1.98;;
70008;SDS011;59542;37.950;-122.338;2023-05-16T07:19:18;2.92;;;1.55;;
70008;SDS011;59542;37.950;-122.338;2023-05-16T07:21:45;2.65;;;1.40;;
70008;SDS011;59542;37.950;-122.338;2023-05-16T07:24:11;4.38;;;1.77;;
70008;SDS011;59542;37.950;-122.338;2023-05-16T07:26:37;5.30;;;1.45;;
70008;SDS011;59542;37.950;-122.338;2023-05-16T07:29:03;3.28;;;1.58;;
70008;SDS011;59542;37.950;-122.338;2023-05-16T07:31:30;6.95;;;1.75;;
70008;SDS011;59542;37.950;-122.338;2023-05-16T07:33:56;4.78;;;1.65;;
70008;SDS011;59542;37.950;-122.338;2023-05-16T07:36:22;1.58;;;1.30;;
70008;SDS011;59542;37.950;-122.338;2023-05-16T07:38:48;3.90;;;1.65;;
70008;SDS011;59542;37.950;-122.338;2023-05-16T07:41:15;2.60;;;1.33;;
70008;SDS011;59542;37.950;-122.338;2023-05-16T07:43:41;4.97;;;1.55;;
70008;SDS011;59542;37.950;-122.338;2023-05-16T07:46:07;3.03;;;1.20;;
70008;SDS011;59542;37.950;-122.338;2023-05-16T07:48:33;3.05;;;1.40;;
70008;SDS011;59542;37.950;-122.338;2023-05-16T07:51:00;1.67;;;1.20;;
70008;SDS011;59542;37.950;-122.338;2023-05-16T07:53:26;3.58;;;1.38;;
70008;SDS011;59542;37.950;-122.338;2023-05-16T07:55:52;4.53;;;1.35;;
70008;SDS011;59542;37.950;-122.338;2023-05-16T07:58:18;2.90;;;1.42;;
70008;SDS011;59542;37.950;-122.338;2023-05-16T08:00:45;4.25;;;1.58;;
70008;SDS011;59542;37.950;-122.338;2023-05-16T08:03:11;9.40;;;2.78;;
70008;SDS011;59542;37.950;-122.338;2023-05-16T08:05:37;10.18;;;5.20;;
70008;SDS011;59542;37.950;-122.338;2023-05-16T08:08:04;6.57;;;5.07;;
70008;SDS011;59542;37.950;-122.338;2023-05-16T08:10:30;4.93;;;2.92;;
70008;SDS011;59542;37.950;-122.338;2023-05-16T08:12:56;4.95;;;2.30;;
70008;SDS011;59542;37.950;-122.338;2023-05-16T08:15:23;5.70;;;2.58;;
70008;SDS011;59542;37.950;-122.338;2023-05-16T08:17:53;7.90;;;2.45;;
70008;SDS011;59542;37.950;-122.338;2023-05-16T08:20:21;5.70;;;2.85;;
70008;SDS011;59542;37.950;-122.338;2023-05-16T08:22:47;5.22;;;2.95;;
70008;SDS011;59542;37.950;-122.338;2023-05-16T08:25:14;5.35;;;2.33;;
70008;SDS011;59542;37.950;-122.338;2023-05-16T08:27:40;3.10;;;2.30;;
70008;SDS011;59542;37.950;-122.338;2023-05-16T08:30:07;4.95;;;2.55;;
70008;SDS011;59542;37.950;-122.338;2023-05-16T08:32:35;5.13;;;3.17;;
70008;SDS011;59542;37.950;-122.338;2023-05-16T08:35:02;5.22;;;3.40;;
70008;SDS011;59542;37.950;-122.338;2023-05-16T08:37:28;8.50;;;3.30;;
70008;SDS011;59542;37.950;-122.338;2023-05-16T08:39:54;5.82;;;3.55;;
70008;SDS011;59542;37.950;-122.338;2023-05-16T08:42:21;5.78;;;3.45;;
70008;SDS011;59542;37.950;-122.338;2023-05-16T08:44:47;4.70;;;3.33;;
70008;SDS011;59542;37.950;-122.338;2023-05-16T08:47:17;7.43;;;3.95;;
70008;SDS011;59542;37.950;-122.338;2023-05-16T08:49:47;5.10;;;3.95;;
70008;SDS011;59542;37.950;-122.338;2023-05-16T08:52:17;5.28;;;3.45;;
70008;SDS011;59542;37.950;-122.338;2023-05-16T08:54:45;4.88;;;3.35;;
70008;SDS011;59542;37.950;-122.338;2023-05-16T08:57:14;6.15;;;3.42;;
70008;SDS011;59542;37.950;-122.338;2023-05-16T08:59:41;7.70;;;4.03;;
70008;SDS011;59542;37.950;-122.338;2023-05-16T09:02:08;9.05;;;4.35;;
70008;SDS011;59542;37.950;-122.338;2023-05-16T09:04:36;6.72;;;4.20;;
70008;SDS011;59542;37.950;-122.338;2023-05-16T09:07:05;7.55;;;4.65;;
70008;SDS011;59542;37.950;-122.338;2023-05-16T09:09:31;6.93;;;4.88;;
70008;SDS011;59542;37.950;-122.338;2023-05-16T09:11:58;7.28;;;5.05;;
70008;SDS011;59542;37.950;-122.338;2023-05-16T09:14:24;8.70;;;6.30;;
70008;SDS011;59542;37.950;-122.338;2023-05-16T09:17:03;13.65;;;7.10;;
70008;SDS011;59542;37.950;-122.338;2023-05-16T09:19:41;7.95;;;5.68;;
70008;SDS011;59542;37.950;-122.338;2023-05-16T09:22:08;6.38;;;5.07;;
70008;SDS011;59542;37.950;-122.338;2023-05-16T09:24:39;8.73;;;7.15;;
70008;SDS011;59542;37.950;-122.338;2023-05-16T09:27:06;10.32;;;6.45;;
70008;SDS011;59542;37.950;-122.338;2023-05-16T09:29:34;6.60;;;5.40;;
70008;SDS011;59542;37.950;-122.338;2023-05-16T09:32:04;11.23;;;7.25;;
70008;SDS011;59542;37.950;-122.338;2023-05-16T09:37:10;6.80;;;6.18;;
70008;SDS011;59542;37.950;-122.338;2023-05-16T09:39:44;8.50;;;7.60;;
70008;SDS011;59542;37.950;-122.338;2023-05-16T09:42:15;12.20;;;8.98;;
70008;SDS011;59542;37.950;-122.338;2023-05-16T09:44:46;8.15;;;6.68;;
70008;SDS011;59542;37.950;-122.338;2023-05-16T09:47:18;11.20;;;6.20;;
70008;SDS011;59542;37.950;-122.338;2023-05-16T09:49:46;7.53;;;5.90;;
70008;SDS011;59542;37.950;-122.338;2023-05-16T09:52:17;6.50;;;4.80;;
70008;SDS011;59542;37.950;-122.338;2023-05-16T09:54:45;11.68;;;8.50;;
70008;SDS011;59542;37.950;-122.338;2023-05-16T09:57:18;14.43;;;10.73;;
70008;SDS011;59542;37.950;-122.338;2023-05-16T09:59:46;11.70;;;10.40;;
70008;SDS011;59542;37.950;-122.338;2023-05-16T10:02:12;15.07;;;9.82;;
70008;SDS011;59542;37.950;-122.338;2023-05-16T10:04:39;11.73;;;9.38;;
70008;SDS011;59542;37.950;-122.338;2023-05-16T10:07:05;17.00;;;10.10;;
70008;SDS011;59542;37.950;-122.338;2023-05-16T10:09:34;11.07;;;9.75;;
70008;SDS011;59542;37.950;-122.338;2023-05-16T10:12:02;15.88;;;11.18;;
70008;SDS011;59542;37.950;-122.338;2023-05-16T10:14:34;14.05;;;11.18;;
70008;SDS011;59542;37.950;-122.338;2023-05-16T10:17:05;15.93;;;11.48;;
70008;SDS011;59542;37.950;-122.338;2023-05-16T10:19:38;13.65;;;11.00;;
70008;SDS011;59542;37.950;-122.338;2023-05-16T10:22:05;12.73;;;10.65;;
70008;SDS011;59542;37.950;-122.338;2023-05-16T10:24:52;11.68;;;10.27;;
70008;SDS011;59542;37.950;-122.338;2023-05-16T10:27:33;14.35;;;9.95;;
70008;SDS011;59542;37.950;-122.338;2023-05-16T10:30:00;10.07;;;7.93;;
70008;SDS011;59542;37.950;-122.338;2023-05-16T10:32:27;11.55;;;7.95;;
70008;SDS011;59542;37.950;-122.338;2023-05-16T10:34:54;7.88;;;5.35;;
70008;SDS011;59542;37.950;-122.338;2023-05-16T10:37:20;8.60;;;6.20;;
70008;SDS011;59542;37.950;-122.338;2023-05-16T10:39:48;9.15;;;6.32;;
70008;SDS011;59542;37.950;-122.338;2023-05-16T10:42:16;9.13;;;5.82;;
70008;SDS011;59542;37.950;-122.338;2023-05-16T10:44:44;7.88;;;6.07;;
70008;SDS011;59542;37.950;-122.338;2023-05-16T10:47:10;9.00;;;7.60;;
70008;SDS011;59542;37.950;-122.338;2023-05-16T10:49:39;7.95;;;7.15;;
70008;SDS011;59542;37.950;-122.338;2023-05-16T10:52:09;9.48;;;8.15;;
70008;SDS011;59542;37.950;-122.338;2023-05-16T10:54:38;8.75;;;7.85;;
70008;SDS011;59542;37.950;-122.338;2023-05-16T10:57:24;10.38;;;8.27;;
70008;SDS011;59542;37.950;-122.338;2023-05-16T10:59:50;8.80;;;6.40;;
70008;SDS011;59542;37.950;-122.338;2023-05-16T11:02:32;8.73;;;5.82;;
70008;SDS011;59542;37.950;-122.338;2023-05-16T11:05:05;8.77;;;5.43;;
70008;SDS011;59542;37.950;-122.338;2023-05-16T11:07:33;8.55;;;5.90;;
70008;SDS011;59542;37.950;-122.338;2023-05-16T11:10:13;9.93;;;7.13;;
70008;SDS011;59542;37.950;-122.338;2023-05-16T11:12:44;8.77;;;6.32;;
70008;SDS011;59542;37.950;-122.338;2023-05-16T11:15:23;10.32;;;7.28;;
70008;SDS011;59542;37.950;-122.338;2023-05-16T11:17:50;9.57;;;6.97;;
70008;SDS011;59542;37.950;-122.338;2023-05-16T11:20:31;10.20;;;7.78;;
70008;SDS011;59542;37.950;-122.338;2023-05-16T11:26:01;11.30;;;8.48;;
70008;SDS011;59542;37.950;-122.338;2023-05-16T11:28:28;13.48;;;7.43;;
70008;SDS011;59542;37.950;-122.338;2023-05-16T11:30:56;7.88;;;5.65;;
70008;SDS011;59542;37.950;-122.338;2023-05-16T11:33:24;5.38;;;3.88;;
70008;SDS011;59542;37.950;-122.338;2023-05-16T11:36:01;6.68;;;3.83;;
70008;SDS011;59542;37.950;-122.338;2023-05-16T11:38:30;5.03;;;4.43;;
70008;SDS011;59542;37.950;-122.338;2023-05-16T11:41:03;6.43;;;4.15;;
70008;SDS011;59542;37.950;-122.338;2023-05-16T11:43:41;4.60;;;3.70;;
70008;SDS011;59542;37.950;-122.338;2023-05-16T11:46:12;6.55;;;3.30;;
70008;SDS011;59542;37.950;-122.338;2023-05-16T11:48:40;6.28;;;2.83;;
70008;SDS011;59542;37.950;-122.338;2023-05-16T11:51:08;4.55;;;3.22;;
70008;SDS011;59542;37.950;-122.338;2023-05-16T11:53:35;6.10;;;3.40;;
70008;SDS011;59542;37.950;-122.338;2023-05-16T11:56:02;5.22;;;2.90;;
70008;SDS011;59542;37.950;-122.338;2023-05-16T11:58:28;4.22;;;2.70;;
70008;SDS011;59542;37.950;-122.338;2023-05-16T12:00:55;4.05;;;2.47;;
70008;SDS011;59542;37.950;-122.338;2023-05-16T12:03:22;5.95;;;2.63;;
70008;SDS011;59542;37.950;-122.338;2023-05-16T12:05:52;8.05;;;2.80;;
70008;SDS011;59542;37.950;-122.338;2023-05-16T12:08:20;3.63;;;2.35;;
70008;SDS011;59542;37.950;-122.338;2023-05-16T12:10:50;6.43;;;3.10;;
70008;SDS011;59542;37.950;-122.338;2023-05-16T12:13:18;2.97;;;2.13;;
70008;SDS011;59542;37.950;-122.338;2023-05-16T12:15:45;4.47;;;2.58;;
70008;SDS011;59542;37.950;-122.338;2023-05-16T12:18:13;6.07;;;2.40;;
70008;SDS011;59542;37.950;-122.338;2023-05-16T12:20:42;4.95;;;2.83;;
70008;SDS011;59542;37.950;-122.338;2023-05-16T12:23:10;6.32;;;2.40;;
70008;SDS011;59542;37.950;-122.338;2023-05-16T12:25:37;6.78;;;2.33;;
70008;SDS011;59542;37.950;-122.338;2023-05-16T12:28:10;6.68;;;3.05;;
70008;SDS011;59542;37.950;-122.338;2023-05-16T12:30:41;4.32;;;2.50;;
70008;SDS011;59542;37.950;-122.338;2023-05-16T12:33:13;5.78;;;2.42;;
70008;SDS011;59542;37.950;-122.338;2023-05-16T12:35:41;5.93;;;2.70;;
70008;SDS011;59542;37.950;-122.338;2023-05-16T12:38:14;5.10;;;2.70;;
70008;SDS011;59542;37.950;-122.338;2023-05-16T12:40:42;7.18;;;2.92;;
70008;SDS011;59542;37.950;-122.338;2023-05-16T12:43:12;9.43;;;3.17;;
70008;SDS011;59542;37.950;-122.338;2023-05-16T12:45:39;7.05;;;3.03;;
70008;SDS011;59542;37.950;-122.338;2023-05-16T12:48:16;8.30;;;3.78;;
70008;SDS011;59542;37.950;-122.338;2023-05-16T12:50:42;10.15;;;3.92;;
70008;SDS011;59542;37.950;-122.338;2023-05-16T12:53:13;5.25;;;4.20;;
70008;SDS011;59542;37.950;-122.338;2023-05-16T12:55:42;8.45;;;4.85;;
70008;SDS011;59542;37.950;-122.338;2023-05-16T12:58:09;10.73;;;5.22;;
70008;SDS011;59542;37.950;-122.338;2023-05-16T13:00:36;6.00;;;4.80;;
70008;SDS011;59542;37.950;-122.338;2023-05-16T13:03:06;7.85;;;4.82;;
70008;SDS011;59542;37.950;-122.338;2023-05-16T13:05:33;7.22;;;5.80;;
70008;SDS011;59542;37.950;-122.338;2023-05-16T13:08:00;11.90;;;7.95;;
70008;SDS011;59542;37.950;-122.338;2023-05-16T13:10:26;11.20;;;8.65;;
70008;SDS011;59542;37.950;-122.338;2023-05-16T13:12:53;10.32;;;8.40;;
70008;SDS011;59542;37.950;-122.338;2023-05-16T13:15:22;14.68;;;9.23;;
70008;SDS011;59542;37.950;-122.338;2023-05-16T13:17:49;11.30;;;8.57;;
70008;SDS011;59542;37.950;-122.338;2023-05-16T13:20:15;12.43;;;9.95;;
70008;SDS011;59542;37.950;-122.338;2023-05-16T13:22:42;12.07;;;9.50;;
70008;SDS011;59542;37.950;-122.338;2023-05-16T13:25:09;12.60;;;9.45;;
70008;SDS011;59542;37.950;-122.338;2023-05-16T13:27:36;12.75;;;9.88;;
70008;SDS011;59542;37.950;-122.338;2023-05-16T13:30:02;12.55;;;9.50;;
70008;SDS011;59542;37.950;-122.338;2023-05-16T13:32:29;11.52;;;9.45;;
70008;SDS011;59542;37.950;-122.338;2023-05-16T13:34:55;13.80;;;8.88;;
70008;SDS011;59542;37.950;-122.338;2023-05-16T13:37:21;13.68;;;8.45;;
70008;SDS011;59542;37.950;-122.338;2023-05-16T13:39:50;11.30;;;8.02;;
70008;SDS011;59542;37.950;-122.338;2023-05-16T13:42:18;8.85;;;7.95;;
70008;SDS011;59542;37.950;-122.338;2023-05-16T13:44:45;12.73;;;10.20;;
70008;SDS011;59542;37.950;-122.338;2023-05-16T13:47:11;12.15;;;9.00;;
70008;SDS011;59542;37.950;-122.338;2023-05-16T13:49:37;10.65;;;8.55;;
70008;SDS011;59542;37.950;-122.338;2023-05-16T13:52:04;13.73;;;9.57;;
70008;SDS011;59542;37.950;-122.338;2023-05-16T13:54:31;12.38;;;8.27;;
70008;SDS011;59542;37.950;-122.338;2023-05-16T13:56:57;11.80;;;8.30;;
70008;SDS011;59542;37.950;-122.338;2023-05-16T13:59:24;9.10;;;7.03;;
70008;SDS011;59542;37.950;-122.338;2023-05-16T14:01:50;10.10;;;7.07;;
70008;SDS011;59542;37.950;-122.338;2023-05-16T14:04:16;10.73;;;7.07;;
70008;SDS011;59542;37.950;-122.338;2023-05-16T14:06:43;10.07;;;7.47;;
70008;SDS011;59542;37.950;-122.338;2023-05-16T14:09:09;10.48;;;7.35;;
70008;SDS011;59542;37.950;-122.338;2023-05-16T14:11:37;10.73;;;8.35;;
70008;SDS011;59542;37.950;-122.338;2023-05-16T14:14:03;7.53;;;6.82;;
70008;SDS011;59542;37.950;-122.338;2023-05-16T14:16:29;12.50;;;8.00;;
70008;SDS011;59542;37.950;-122.338;2023-05-16T14:18:55;10.02;;;6.63;;
70008;SDS011;59542;37.950;-122.338;2023-05-16T14:21:22;8.80;;;7.25;;
70008;SDS011;59542;37.950;-122.338;2023-05-16T14:23:48;9.27;;;6.97;;
70008;SDS011;59542;37.950;-122.338;2023-05-16T14:26:14;9.48;;;6.70;;